Watford City, ND

10:34 AM CST on December 06, 2019 (GMT -0600)
Watford City

Weather History for KS25 - October, 2019

Change the Weather History Date:

Sunday, October 27, 2019

  Actual Average (WUND) Record (WUND)
Temperature  
Mean Temperature 21 °F -  
Max Temperature 28 °F - - (-1)
Min Temperature 12 °F - - (-1)
Degree Days  
Heating Degree Days 44    
Moisture  
Dew Point 13 °F    
Average Humidity 67    
Maximum Humidity 86    
Minimum Humidity 50    
Precipitation  
Precipitation 0.00 in - - ()
Sea Level Pressure  
Sea Level Pressure 30.14 in    
Wind  
Wind Speed 16 mph (WNW)    
Max Wind Speed 22 mph    
Max Gust Speed 31 mph    
Visibility 10 miles    
Events Snow    
Averages and records for this station are not official NWS values.
T = Trace of Precipitation, MM = Missing Value Source: NWS Daily Summary

Daily Weather History Graph

Daily Weather History Graph

Search for Another Location

Airport or City:

Astronomy

Oct. 27, 2019 Rise Set
Actual Time 8:29 AM CDT 6:43 PM CDT
Civil Twilight 7:57 AM CDT 7:15 PM CDT
Nautical Twilight 7:21 AM CDT 7:51 PM CDT
Astronomical Twilight 6:45 AM CDT 8:27 PM CDT
Moon 7:33 AM CDT (10/27) 6:59 PM CDT (10/27)
Length of Visible Light 11h 17m
Length of Day
10h 13m
Waning Crescent, 0% of the Moon is Illuminated
Oct 27
Waning Crescent
Oct 27
New
Nov 4
First Quarter
Nov 12
Full
Nov 19
Last Quarter

Hourly Weather History & Observations

Time (CDT) Temp. Windchill Dew Point Humidity Pressure Visibility Wind Dir Wind Speed Gust Speed Precip Events Conditions
12:15 AM 28.4 °F 14.7 °F 21.2 °F 74% 30.06 in 10.0 mi NNW 21.9 mph 27.6 mph N/A   Mostly Cloudy
12:35 AM 28.4 °F 15.1 °F 19.4 °F 69% 30.08 in 10.0 mi NNW 20.7 mph 28.8 mph N/A   Overcast
12:55 AM 26.6 °F 14.3 °F 23.0 °F 86% 30.09 in 10.0 mi NW 16.1 mph - N/A Snow Light Snow
1:15 AM 28.4 °F 17.5 °F 23.0 °F 80% 30.09 in 10.0 mi NW 13.8 mph 21.9 mph N/A   Overcast
1:35 AM 26.6 °F 14.7 °F 21.2 °F 80% 30.10 in 10.0 mi NW 15.0 mph 21.9 mph N/A   Overcast
1:55 AM 26.6 °F 14.3 °F 19.4 °F 74% 30.11 in 10.0 mi NW 16.1 mph 26.5 mph N/A   Overcast
2:15 AM 26.6 °F 13.4 °F 19.4 °F 74% 30.11 in 10.0 mi NNW 18.4 mph 26.5 mph N/A   Mostly Cloudy
2:35 AM 26.6 °F 13.8 °F 17.6 °F 69% 30.12 in 10.0 mi NW 17.3 mph 26.5 mph N/A   Overcast
2:55 AM 26.6 °F 13.1 °F 17.6 °F 69% 30.12 in 10.0 mi NW 19.6 mph 29.9 mph N/A   Mostly Cloudy
3:15 AM 24.8 °F 11.9 °F 17.6 °F 74% 30.13 in 10.0 mi NW 16.1 mph 25.3 mph N/A   Mostly Cloudy
3:35 AM 23.0 °F 10.1 °F 17.6 °F 80% 30.13 in 10.0 mi NW 15.0 mph 23.0 mph N/A   Scattered Clouds
3:55 AM 23.0 °F 11.7 °F 17.6 °F 80% 30.14 in 10.0 mi NW 11.5 mph 20.7 mph N/A   Clear
4:15 AM 23.0 °F 10.6 °F 17.6 °F 80% 30.13 in 10.0 mi WNW 13.8 mph - N/A   Mostly Cloudy
4:35 AM 23.0 °F 10.6 °F 17.6 °F 80% 30.13 in 10.0 mi WNW 13.8 mph - N/A   Mostly Cloudy
4:55 AM 23.0 °F 11.7 °F 19.4 °F 86% 30.13 in 10.0 mi WNW 11.5 mph - N/A   Mostly Cloudy
5:15 AM 24.8 °F 12.4 °F 19.4 °F 80% 30.13 in 10.0 mi NW 15.0 mph 24.2 mph N/A   Mostly Cloudy
5:35 AM 24.8 °F 12.9 °F 19.4 °F 80% 30.13 in 10.0 mi WNW 13.8 mph 20.7 mph N/A   Overcast
5:55 AM 24.8 °F 12.4 °F 19.4 °F 80% 30.13 in 10.0 mi NW 15.0 mph 28.8 mph N/A   Overcast
6:15 AM 23.0 °F 10.6 °F 17.6 °F 80% 30.14 in 10.0 mi WNW 13.8 mph 23.0 mph N/A   Overcast
6:35 AM 21.2 °F 8.3 °F 17.6 °F 86% 30.14 in 10.0 mi NW 13.8 mph - N/A   Mostly Cloudy
6:55 AM 23.0 °F 9.2 °F 17.6 °F 80% 30.14 in 10.0 mi NW 17.3 mph 26.5 mph N/A   Mostly Cloudy
7:15 AM 21.2 °F 7.3 °F 17.6 °F 86% 30.14 in 10.0 mi WNW 16.1 mph 24.2 mph N/A   Mostly Cloudy
7:35 AM 23.0 °F 10.1 °F 15.8 °F 74% 30.15 in 10.0 mi NW 15.0 mph 26.5 mph N/A   Mostly Cloudy
7:55 AM 23.0 °F 10.1 °F 15.8 °F 74% 30.15 in 10.0 mi WNW 15.0 mph 20.7 mph N/A   Overcast
8:15 AM 21.2 °F 9.5 °F 15.8 °F 80% 30.15 in 10.0 mi WNW 11.5 mph 19.6 mph N/A   Overcast
8:35 AM 21.2 °F 8.9 °F 15.8 °F 80% 30.15 in 10.0 mi WNW 12.7 mph 21.9 mph N/A   Overcast
8:55 AM 21.2 °F 7.8 °F 14.0 °F 74% 30.16 in 10.0 mi NW 15.0 mph - N/A   Overcast
9:15 AM 21.2 °F 9.5 °F 14.0 °F 74% 30.17 in 10.0 mi NW 11.5 mph 20.7 mph N/A   Overcast
9:35 AM 21.2 °F 7.3 °F 14.0 °F 74% 30.17 in 10.0 mi NW 16.1 mph 23.0 mph N/A   Overcast
9:55 AM 21.2 °F 6.0 °F 14.0 °F 74% 30.18 in 10.0 mi WNW 19.6 mph - N/A   Overcast
10:15 AM 21.2 °F 6.0 °F 14.0 °F 74% 30.19 in 10.0 mi NW 19.6 mph 26.5 mph N/A   Mostly Cloudy
10:35 AM 23.0 °F 9.6 °F 14.0 °F 68% 30.19 in 10.0 mi WNW 16.1 mph 26.5 mph N/A   Overcast
10:55 AM 23.0 °F 10.6 °F 14.0 °F 68% 30.19 in 10.0 mi NW 13.8 mph 24.2 mph N/A   Overcast
11:15 AM 23.0 °F 10.6 °F 14.0 °F 68% 30.20 in 10.0 mi NW 13.8 mph 23.0 mph N/A   Overcast
11:35 AM 23.0 °F 9.6 °F 12.2 °F 63% 30.20 in 10.0 mi NW 16.1 mph 21.9 mph N/A   Overcast
11:55 AM 23.0 °F 10.1 °F 12.2 °F 63% 30.20 in 10.0 mi NW 15.0 mph 24.2 mph N/A   Overcast
12:15 PM 24.8 °F 11.9 °F 10.4 °F 54% 30.20 in 10.0 mi WNW 16.1 mph 25.3 mph N/A   Mostly Cloudy
12:35 PM 24.8 °F 11.5 °F 12.2 °F 59% 30.19 in 10.0 mi WNW 17.3 mph 28.8 mph N/A   Mostly Cloudy
12:55 PM 24.8 °F 10.7 °F 10.4 °F 54% 30.18 in 10.0 mi NW 19.6 mph - N/A   Scattered Clouds
1:15 PM 26.6 °F 13.4 °F 10.4 °F 51% 30.18 in 10.0 mi NW 18.4 mph 27.6 mph N/A   Scattered Clouds
1:35 PM 24.8 °F 11.5 °F 10.4 °F 54% 30.17 in 10.0 mi WNW 17.3 mph 25.3 mph N/A   Mostly Cloudy
1:55 PM 24.8 °F 11.1 °F 10.4 °F 54% 30.17 in 10.0 mi NW 18.4 mph - N/A   Mostly Cloudy
2:15 PM 24.8 °F 10.7 °F 10.4 °F 54% 30.16 in 10.0 mi WNW 19.6 mph - N/A   Mostly Cloudy
2:35 PM 24.8 °F 11.9 °F 10.4 °F 54% 30.16 in 10.0 mi WNW 16.1 mph 25.3 mph N/A   Mostly Cloudy
2:55 PM 24.8 °F 11.9 °F 8.6 °F 50% 30.15 in 10.0 mi NW 16.1 mph 25.3 mph N/A   Overcast
3:15 PM 24.8 °F 11.1 °F 10.4 °F 54% 30.15 in 10.0 mi NW 18.4 mph - N/A   Overcast
3:35 PM 24.8 °F 10.0 °F 8.6 °F 50% 30.15 in 10.0 mi WNW 21.9 mph 31.1 mph N/A   Overcast
3:55 PM 24.8 °F 11.1 °F 8.6 °F 50% 30.14 in 10.0 mi WNW 18.4 mph 27.6 mph N/A   Overcast
4:15 PM 24.8 °F 12.4 °F 8.6 °F 50% 30.14 in 10.0 mi WNW 15.0 mph 25.3 mph N/A   Overcast
4:35 PM 24.8 °F 11.1 °F 10.4 °F 54% 30.14 in 10.0 mi WNW 18.4 mph - N/A   Overcast
4:55 PM 24.8 °F 12.4 °F 10.4 °F 54% 30.14 in 10.0 mi WNW 15.0 mph 20.7 mph N/A   Overcast
5:15 PM 24.8 °F 11.5 °F 8.6 °F 50% 30.14 in 10.0 mi WNW 17.3 mph 24.2 mph N/A   Overcast
5:35 PM 23.0 °F 9.6 °F 10.4 °F 59% 30.14 in 10.0 mi NW 16.1 mph 25.3 mph N/A   Overcast
5:55 PM 23.0 °F 8.7 °F 10.4 °F 59% 30.14 in 10.0 mi WNW 18.4 mph - N/A   Overcast
6:15 PM 23.0 °F 9.6 °F 8.6 °F 54% 30.13 in 10.0 mi WNW 16.1 mph 21.9 mph N/A   Overcast
6:35 PM 23.0 °F 9.6 °F 10.4 °F 59% 30.13 in 10.0 mi WNW 16.1 mph 23.0 mph N/A   Overcast
6:55 PM 23.0 °F 10.6 °F 8.6 °F 54% 30.13 in 10.0 mi WNW 13.8 mph 21.9 mph N/A   Overcast
7:15 PM 21.2 °F 7.3 °F 8.6 °F 58% 30.13 in 10.0 mi WNW 16.1 mph 23.0 mph N/A   Overcast
7:35 PM 21.2 °F 9.5 °F 8.6 °F 58% 30.13 in 10.0 mi West 11.5 mph 18.4 mph N/A   Overcast
7:55 PM 21.2 °F 8.3 °F 10.4 °F 63% 30.13 in 10.0 mi WNW 13.8 mph - N/A   Overcast
8:15 PM 21.2 °F 7.3 °F 10.4 °F 63% 30.13 in 10.0 mi West 16.1 mph - N/A   Overcast
8:35 PM 21.2 °F 7.8 °F 8.6 °F 58% 30.13 in 10.0 mi West 15.0 mph 23.0 mph N/A   Overcast
8:55 PM 21.2 °F 7.3 °F 8.6 °F 58% 30.12 in 10.0 mi WNW 16.1 mph 21.9 mph N/A   Overcast
9:15 PM 21.2 °F 8.3 °F 8.6 °F 58% 30.12 in 10.0 mi West 13.8 mph 19.6 mph N/A   Overcast
9:35 PM 21.2 °F 9.5 °F 8.6 °F 58% 30.12 in 10.0 mi West 11.5 mph 19.6 mph N/A   Overcast
9:55 PM 19.4 °F 4.1 °F 8.6 °F 63% 30.11 in 10.0 mi WNW 18.4 mph 24.2 mph N/A   Overcast
10:15 PM 19.4 °F 6.6 °F 8.6 °F 63% 30.10 in 10.0 mi West 12.7 mph - N/A   Overcast
10:35 PM 19.4 °F 7.9 °F 8.6 °F 63% 30.10 in 10.0 mi West 10.4 mph - N/A   Overcast
10:55 PM 17.6 °F 6.4 °F 8.6 °F 68% 30.10 in 10.0 mi West 9.2 mph - N/A   Mostly Cloudy
11:15 PM 15.8 °F 6.1 °F 8.6 °F 73% 30.09 in 10.0 mi WSW 6.9 mph - N/A   Scattered Clouds
11:35 PM 14.0 °F 2.9 °F 8.6 °F 79% 30.09 in 10.0 mi SW 8.1 mph - N/A   Clear
11:55 PM 12.2 °F -0.2 °F 6.8 °F 79% 30.08 in 10.0 mi SW 9.2 mph - N/A   Clear